This is the latest recevied weather packets stored in our database for station/object W0AKO. If no packets are shown the sender has not sent any weather packets the latest 1 day(s).
| Time | Temp. | Humidity | Pressure | Rain* | Wind** | Luminosity | Snow |
|---|---|---|---|---|---|---|---|
| 1778001163 | 18.89° C | 10% | 1012.8 hPa | 0 mm | 0.89 m/s, 3° | 737 W/m² | - |
| 1778000860 | 18.89° C | 10% | 1012.9 hPa | 0 mm | 2.24 m/s, 296° | 691 W/m² | - |
| 1778000557 | 18.89° C | 10% | 1012.9 hPa | 0 mm | 3.13 m/s, 286° | 655 W/m² | - |
| 1778000252 | 18.89° C | 10% | 1012.9 hPa | 0 mm | 2.68 m/s, 264° | 652 W/m² | - |
| 1777999949 | 18.33° C | 10% | 1012.9 hPa | 0 mm | 1.34 m/s, 44° | 642 W/m² | - |
| 1777999644 | 18.89° C | 10% | 1012.8 hPa | 0 mm | 2.24 m/s, 235° | 598 W/m² | - |
| 1777999342 | 18.33° C | 10% | 1012.7 hPa | 0 mm | 1.34 m/s, 210° | 580 W/m² | - |
| 1777999040 | 18.33° C | 10% | 1012.9 hPa | 0 mm | 0.89 m/s, 206° | 572 W/m² | - |
| 1777998738 | 17.78° C | 10% | 1012.8 hPa | 0 mm | 1.34 m/s, 241° | 557 W/m² | - |
| 1777998435 | 17.78° C | 10% | 1013 hPa | 0 mm | 0.89 m/s, 270° | 517 W/m² | - |
| 1777998132 | 17.78° C | 10% | 1012.8 hPa | 0 mm | 1.34 m/s, 210° | 476 W/m² | - |
| 1777997829 | 17.78° C | 10% | 1012.9 hPa | 0 mm | 1.34 m/s, 274° | 435 W/m² | - |
| 1777997527 | 17.78° C | 10% | 1013 hPa | 0 mm | 2.24 m/s, 289° | 423 W/m² | - |
| 1777997224 | 18.89° C | 10% | 1013.1 hPa | 0 mm | 0.45 m/s, 69° | 390 W/m² | - |
| 1777996921 | 18.33° C | 10% | 1013.1 hPa | 0 mm | 0.89 m/s, 118° | 370 W/m² | - |
| 1777996617 | 17.78° C | 10% | 1013 hPa | 0 mm | 0 m/s | 355 W/m² | - |
| 1777996314 | 17.22° C | 10% | 1012.9 hPa | 0 mm | 0.45 m/s, 51° | 342 W/m² | - |
| 1777996010 | 17.22° C | 10% | 1013 hPa | 0 mm | 0.45 m/s, 44° | 326 W/m² | - |
| 1777995706 | 17.78° C | 10% | 1013.1 hPa | 0 mm | 0 m/s | 308 W/m² | - |
| 1777995403 | 17.22° C | 10% | 1013.3 hPa | 0 mm | 0.45 m/s, 56° | 297 W/m² | - |
| 1777995100 | 16.67° C | 10% | 1013.3 hPa | 0 mm | 0.45 m/s, 17° | 275 W/m² | - |
| 1777994797 | 16.67° C | 10% | 1013.2 hPa | 0 mm | 0 m/s | 263 W/m² | - |
| 1777994493 | 17.22° C | 10% | 1013.1 hPa | 0 mm | 0.45 m/s, 54° | 252 W/m² | - |
| 1777994188 | 16.67° C | 10% | 1013.4 hPa | 0 mm | 0.89 m/s, 46° | 246 W/m² | - |
| 1777993886 | 16.67° C | 10% | 1013.2 hPa | 0 mm | 0.45 m/s, 43° | 254 W/m² | - |
* Rain latest hour (hover to see other rain measurements)
** Current wind speed in m/s (hover to see current wind gust speed)